createdAt,value
2023-06-16T00:00:44.605Z,4.72
2023-06-16T00:03:17.355Z,4.22
2023-06-16T00:05:46.392Z,4.65
2023-06-16T00:08:13.448Z,5.22
2023-06-16T00:10:40.232Z,4.90
2023-06-16T00:13:06.913Z,4.22
2023-06-16T00:15:33.669Z,4.70
2023-06-16T00:18:01.246Z,5.00
2023-06-16T00:20:29.002Z,5.32
2023-06-16T00:22:56.150Z,4.70
2023-06-16T00:25:23.059Z,4.90
2023-06-16T00:27:49.762Z,4.72
2023-06-16T00:30:17.180Z,4.45
2023-06-16T00:32:45.069Z,4.13
2023-06-16T00:35:13.007Z,4.60
2023-06-16T00:37:39.654Z,4.35
2023-06-16T00:40:07.471Z,4.28
2023-06-16T00:42:35.016Z,4.65
2023-06-16T00:45:01.925Z,4.10
2023-06-16T00:47:28.909Z,4.78
2023-06-16T00:49:55.736Z,4.07
2023-06-16T00:52:29.190Z,4.50
2023-06-16T00:54:57.314Z,4.60
2023-06-16T00:57:24.232Z,4.18
2023-06-16T00:59:50.980Z,5.40
2023-06-16T01:02:19.849Z,4.88
2023-06-16T01:04:48.650Z,4.55
2023-06-16T01:07:22.545Z,5.30
2023-06-16T01:09:56.638Z,4.65
2023-06-16T01:12:41.785Z,4.53
2023-06-16T01:15:16.837Z,4.22
2023-06-16T01:20:28.955Z,4.25
2023-06-16T01:23:15.884Z,4.60
2023-06-16T01:25:45.406Z,4.65
2023-06-16T01:28:20.366Z,4.25
2023-06-16T01:30:51.587Z,4.40
2023-06-16T01:33:22.108Z,4.60
2023-06-16T01:35:51.625Z,4.75
2023-06-16T01:38:19.998Z,5.07
2023-06-16T01:40:48.271Z,4.43
2023-06-16T01:43:16.077Z,4.57
2023-06-16T01:45:43.344Z,4.18
2023-06-16T01:48:10.388Z,3.85
2023-06-16T01:50:37.769Z,3.67
2023-06-16T01:53:04.511Z,3.88
2023-06-16T01:55:32.509Z,4.07
2023-06-16T01:57:59.475Z,4.38
2023-06-16T02:00:34.150Z,4.05
2023-06-16T02:03:08.335Z,3.85
2023-06-16T02:05:38.440Z,3.85
2023-06-16T02:08:09.149Z,3.70
2023-06-16T02:10:36.807Z,4.28
2023-06-16T02:13:03.703Z,4.00
2023-06-16T02:15:33.449Z,3.70
2023-06-16T02:18:00.653Z,4.53
2023-06-16T02:20:27.468Z,3.92
2023-06-16T02:22:54.843Z,3.63
2023-06-16T02:25:23.210Z,4.30
2023-06-16T02:27:50.166Z,3.90
2023-06-16T02:30:17.559Z,4.07
2023-06-16T02:32:57.051Z,4.22
2023-06-16T02:35:28.624Z,4.18
2023-06-16T02:37:55.823Z,4.00
2023-06-16T02:40:23.276Z,4.03
2023-06-16T02:42:50.063Z,4.38
2023-06-16T02:45:18.662Z,4.18
2023-06-16T02:47:46.326Z,3.90
2023-06-16T02:50:13.249Z,3.60
2023-06-16T02:52:42.420Z,3.70
2023-06-16T02:55:14.495Z,3.72
2023-06-16T02:57:46.702Z,3.40
2023-06-16T03:00:14.264Z,3.70
2023-06-16T03:03:01.191Z,3.58
2023-06-16T03:05:28.863Z,3.75
2023-06-16T03:07:56.439Z,4.05
2023-06-16T03:10:25.018Z,4.70
2023-06-16T03:13:16.505Z,3.72
2023-06-16T03:15:44.728Z,3.83
2023-06-16T03:18:12.496Z,4.28
2023-06-16T03:20:40.599Z,4.55
2023-06-16T03:23:17.728Z,4.10
2023-06-16T03:25:44.796Z,4.00
2023-06-16T03:28:14.773Z,4.00
2023-06-16T03:30:41.653Z,4.00
2023-06-16T03:33:10.919Z,3.85
2023-06-16T03:35:39.983Z,4.10
2023-06-16T03:38:13.180Z,4.07
2023-06-16T03:40:42.853Z,3.90
2023-06-16T03:43:10.306Z,3.88
2023-06-16T03:45:37.274Z,3.70
2023-06-16T03:48:06.480Z,4.45
2023-06-16T03:50:42.796Z,4.15
2023-06-16T03:53:16.803Z,3.70
2023-06-16T03:55:45.317Z,3.83
2023-06-16T03:58:14.566Z,3.63
2023-06-16T04:00:41.570Z,3.83
2023-06-16T04:03:09.569Z,4.20
2023-06-16T04:05:36.862Z,3.80
2023-06-16T04:08:05.288Z,4.07
2023-06-16T04:10:34.651Z,4.20
2023-06-16T04:13:01.533Z,4.25
2023-06-16T04:15:32.103Z,4.50
2023-06-16T04:17:59.474Z,4.05
2023-06-16T04:20:26.139Z,4.88
2023-06-16T04:22:53.206Z,4.72
2023-06-16T04:25:22.896Z,3.88
2023-06-16T04:27:52.930Z,4.25
2023-06-16T04:30:25.485Z,4.07
2023-06-16T04:32:56.084Z,3.80
2023-06-16T04:35:23.679Z,4.80
2023-06-16T04:37:51.092Z,4.43
2023-06-16T04:40:18.387Z,4.47
2023-06-16T04:42:45.227Z,4.10
2023-06-16T04:45:12.467Z,4.57
2023-06-16T04:47:43.952Z,3.90
2023-06-16T04:50:11.429Z,4.07
2023-06-16T04:52:39.014Z,4.05
2023-06-16T04:55:06.153Z,3.80
2023-06-16T04:57:33.815Z,3.88
2023-06-16T05:00:01.420Z,4.05
2023-06-16T05:02:28.782Z,3.60
2023-06-16T05:04:57.354Z,4.35
2023-06-16T05:07:24.087Z,3.53
2023-06-16T05:09:50.833Z,3.55
2023-06-16T05:12:17.659Z,4.00
2023-06-16T05:14:45.517Z,4.40
2023-06-16T05:17:12.442Z,4.13
2023-06-16T05:19:40.640Z,3.67
2023-06-16T05:22:07.846Z,4.30
2023-06-16T05:24:36.167Z,5.10
2023-06-16T05:27:04.366Z,4.82
2023-06-16T05:29:32.753Z,5.18
2023-06-16T05:32:00.208Z,4.45
2023-06-16T05:34:27.181Z,5.15
2023-06-16T05:36:54.340Z,5.25
2023-06-16T05:39:23.521Z,4.95
2023-06-16T05:41:50.214Z,5.55
2023-06-16T05:44:18.860Z,4.65
2023-06-16T05:46:45.826Z,5.05
2023-06-16T05:49:16.746Z,5.25
2023-06-16T05:51:43.539Z,6.10
2023-06-16T05:54:10.305Z,5.13
2023-06-16T05:56:37.694Z,4.43
2023-06-16T05:59:05.076Z,4.70
2023-06-16T06:01:33.772Z,5.05
2023-06-16T06:04:00.863Z,5.70
2023-06-16T06:06:29.192Z,4.90
2023-06-16T06:08:56.452Z,4.70
2023-06-16T06:11:23.414Z,5.13
2023-06-16T06:13:50.511Z,4.60
2023-06-16T06:16:17.327Z,4.28
2023-06-16T06:18:48.694Z,4.90
2023-06-16T06:21:16.190Z,4.85
2023-06-16T06:23:42.902Z,5.07
2023-06-16T06:26:10.293Z,5.38
2023-06-16T06:28:37.051Z,4.82
2023-06-16T06:31:03.983Z,4.95
2023-06-16T06:33:32.804Z,5.07
2023-06-16T06:35:59.812Z,4.22
2023-06-16T06:38:27.308Z,4.70
2023-06-16T06:40:54.938Z,4.70
2023-06-16T06:43:21.910Z,4.65
2023-06-16T06:45:54.182Z,4.32
2023-06-16T06:48:21.700Z,4.05
2023-06-16T06:50:52.948Z,4.20
2023-06-16T06:53:20.190Z,5.18
2023-06-16T06:55:47.090Z,4.90
2023-06-16T06:58:13.832Z,4.25
2023-06-16T07:00:40.584Z,4.15
2023-06-16T07:03:07.520Z,4.18
2023-06-16T07:05:35.306Z,4.00
2023-06-16T07:08:05.315Z,4.38
2023-06-16T07:10:33.935Z,4.40
2023-06-16T07:13:00.852Z,3.60
2023-06-16T07:15:27.578Z,4.28
2023-06-16T07:17:54.310Z,4.28
2023-06-16T07:20:21.526Z,3.90
2023-06-16T07:22:48.516Z,4.25
2023-06-16T07:25:16.984Z,4.40
2023-06-16T07:27:44.325Z,4.57
2023-06-16T07:30:12.062Z,3.97
2023-06-16T07:32:40.972Z,4.57
2023-06-16T07:35:09.760Z,4.00
2023-06-16T07:37:36.601Z,4.32
2023-06-16T07:40:07.869Z,3.97
2023-06-16T07:42:34.634Z,4.18
2023-06-16T07:45:01.222Z,3.95
2023-06-16T07:47:27.991Z,3.88
2023-06-16T07:49:54.600Z,4.40
2023-06-16T07:52:21.380Z,3.65
2023-06-16T07:54:48.284Z,4.00
2023-06-16T07:57:15.050Z,4.20
2023-06-16T07:59:41.747Z,3.80
2023-06-16T08:02:08.524Z,3.88
2023-06-16T08:04:35.345Z,4.10
2023-06-16T08:07:03.429Z,3.85
2023-06-16T08:09:30.227Z,4.50
2023-06-16T08:11:57.063Z,3.97
2023-06-16T08:14:23.722Z,4.10
2023-06-16T08:16:50.497Z,3.55
2023-06-16T08:19:17.164Z,3.60
2023-06-16T08:21:43.813Z,4.15
2023-06-16T08:24:10.915Z,3.75
2023-06-16T08:26:39.702Z,4.03
2023-06-16T08:29:07.797Z,3.90
2023-06-16T08:31:34.715Z,3.78
2023-06-16T08:34:02.313Z,4.03
2023-06-16T08:36:29.553Z,3.50
2023-06-16T08:38:56.343Z,4.72
2023-06-16T08:41:24.430Z,3.70
2023-06-16T08:43:51.958Z,4.32
2023-06-16T08:46:18.867Z,4.10
2023-06-16T08:48:46.543Z,3.78
2023-06-16T08:51:17.857Z,4.07
2023-06-16T08:53:47.715Z,3.63
2023-06-16T08:56:19.221Z,4.20
2023-06-16T08:58:48.421Z,3.88
2023-06-16T09:01:16.085Z,4.07
2023-06-16T09:03:49.108Z,3.90
2023-06-16T09:06:16.466Z,4.20
2023-06-16T09:08:43.169Z,3.83
2023-06-16T09:11:09.997Z,4.13
2023-06-16T09:13:43.154Z,3.53
2023-06-16T09:16:10.512Z,3.55
2023-06-16T09:18:42.562Z,4.22
2023-06-16T09:21:09.655Z,3.90
2023-06-16T09:23:36.758Z,3.67
2023-06-16T09:26:16.387Z,3.75
2023-06-16T09:28:45.357Z,3.10
2023-06-16T09:31:16.276Z,4.10
2023-06-16T09:33:43.593Z,3.60
2023-06-16T09:36:11.097Z,3.80
2023-06-16T09:38:39.241Z,4.30
2023-06-16T09:41:10.250Z,4.05
2023-06-16T09:43:41.033Z,3.53
2023-06-16T09:46:10.492Z,4.00
2023-06-16T09:48:48.860Z,3.08
2023-06-16T09:51:24.225Z,3.53
2023-06-16T09:53:53.094Z,4.30
2023-06-16T09:56:20.694Z,3.67
2023-06-16T09:58:48.757Z,4.10
2023-06-16T10:01:17.165Z,4.10
2023-06-16T10:03:49.086Z,3.70
2023-06-16T10:06:20.218Z,3.30
2023-06-16T10:08:51.020Z,3.75
2023-06-16T10:11:19.533Z,4.07
2023-06-16T10:13:52.714Z,4.18
2023-06-16T10:16:24.874Z,3.28
2023-06-16T10:18:54.675Z,3.80
2023-06-16T10:21:23.847Z,3.25
2023-06-16T10:23:52.076Z,3.90
2023-06-16T10:26:19.967Z,3.47
2023-06-16T10:28:47.304Z,3.65
2023-06-16T10:31:15.624Z,3.78
2023-06-16T10:33:56.201Z,3.38
2023-06-16T10:36:25.022Z,3.63
2023-06-16T10:38:57.651Z,3.63
2023-06-16T10:41:25.387Z,3.60
2023-06-16T10:43:52.170Z,3.08
2023-06-16T10:46:21.717Z,3.42
2023-06-16T10:49:06.506Z,3.47
2023-06-16T10:51:49.833Z,3.13
2023-06-16T10:54:49.466Z,3.42
2023-06-16T10:57:16.435Z,3.05
2023-06-16T11:00:13.550Z,3.67
2023-06-16T11:02:58.516Z,3.40
2023-06-16T11:05:40.386Z,3.25
2023-06-16T11:08:15.024Z,3.25
2023-06-16T11:10:49.359Z,2.85
2023-06-16T11:13:17.668Z,3.17
2023-06-16T11:15:44.943Z,3.15
2023-06-16T11:18:13.640Z,3.25
2023-06-16T11:20:41.394Z,3.55
2023-06-16T11:23:09.131Z,2.60
2023-06-16T11:25:40.158Z,3.25
2023-06-16T11:28:07.324Z,3.30
2023-06-16T11:30:36.853Z,3.00
2023-06-16T11:33:04.426Z,3.08
2023-06-16T11:35:34.700Z,2.95
2023-06-16T11:38:01.857Z,2.47
2023-06-16T11:40:31.387Z,2.70
2023-06-16T11:43:01.033Z,3.10
2023-06-16T11:45:30.315Z,3.05
2023-06-16T11:47:58.845Z,2.63
2023-06-16T11:50:26.702Z,2.53
2023-06-16T11:52:54.167Z,2.65
2023-06-16T11:55:21.383Z,3.00
2023-06-16T11:57:48.381Z,3.08
2023-06-16T12:00:16.529Z,3.50
2023-06-16T12:02:46.720Z,2.95
2023-06-16T12:05:25.528Z,3.00
2023-06-16T12:07:52.333Z,3.13
2023-06-16T12:10:19.473Z,3.33
2023-06-16T12:12:48.437Z,3.00
2023-06-16T12:15:20.107Z,2.72
2023-06-16T12:17:48.780Z,3.38
2023-06-16T12:20:18.535Z,3.10
2023-06-16T12:22:46.149Z,3.22
2023-06-16T12:25:17.633Z,4.18
2023-06-16T12:27:50.737Z,3.30
2023-06-16T12:30:18.575Z,3.00
2023-06-16T12:32:46.735Z,3.00
2023-06-16T12:35:23.332Z,3.40
2023-06-16T12:37:50.152Z,3.70
2023-06-16T12:40:18.217Z,2.97
2023-06-16T12:42:45.468Z,3.00
2023-06-16T12:45:14.493Z,3.55
2023-06-16T12:47:41.681Z,3.60
2023-06-16T12:50:08.793Z,3.00
2023-06-16T12:52:35.588Z,3.80
2023-06-16T12:55:04.809Z,3.40
2023-06-16T12:57:31.558Z,3.38
2023-06-16T12:59:58.268Z,3.15
2023-06-16T13:02:25.016Z,3.20
2023-06-16T13:04:51.996Z,3.47
2023-06-16T13:07:18.984Z,3.25
2023-06-16T13:09:45.729Z,3.17
2023-06-16T13:12:13.211Z,3.67
2023-06-16T13:14:40.874Z,3.58
2023-06-16T13:17:07.828Z,3.10
2023-06-16T13:19:34.549Z,3.40
2023-06-16T13:22:02.464Z,3.38
2023-06-16T13:24:30.356Z,3.40
2023-06-16T13:26:57.331Z,3.95
2023-06-16T13:29:23.964Z,3.45
2023-06-16T13:31:50.856Z,3.78
2023-06-16T13:34:17.504Z,3.25
2023-06-16T13:36:44.320Z,3.75
2023-06-16T13:39:12.025Z,3.42
2023-06-16T13:41:38.979Z,3.38
2023-06-16T13:44:05.810Z,3.47
2023-06-16T13:46:32.869Z,3.53
2023-06-16T13:48:59.555Z,3.38
2023-06-16T13:51:26.512Z,3.13
2023-06-16T13:53:53.270Z,3.58
2023-06-16T13:56:21.831Z,3.70
2023-06-16T13:58:48.480Z,3.70
2023-06-16T14:01:15.410Z,4.00
2023-06-16T14:03:42.287Z,3.63
2023-06-16T14:06:09.135Z,3.65
2023-06-16T14:08:35.975Z,3.72
2023-06-16T14:11:02.747Z,3.30
2023-06-16T14:13:29.409Z,3.80
2023-06-16T14:15:56.161Z,3.50
2023-06-16T14:18:22.907Z,3.15
2023-06-16T14:20:50.028Z,3.95
2023-06-16T14:23:16.808Z,3.63
2023-06-16T14:25:47.359Z,3.60
2023-06-16T14:28:15.264Z,3.40
2023-06-16T14:30:42.531Z,3.55
2023-06-16T14:33:11.201Z,2.97
2023-06-16T14:35:38.205Z,3.70
2023-06-16T14:38:05.152Z,3.72
2023-06-16T14:40:32.377Z,3.60
2023-06-16T14:42:59.542Z,3.80
2023-06-16T14:45:26.269Z,3.15
2023-06-16T14:47:53.072Z,3.25
2023-06-16T14:50:20.386Z,3.67
2023-06-16T14:52:47.549Z,3.38
2023-06-16T14:55:14.457Z,3.20
2023-06-16T14:57:41.582Z,3.42
2023-06-16T15:00:08.986Z,3.08
2023-06-16T15:02:36.126Z,2.95
2023-06-16T15:05:03.050Z,3.63
2023-06-16T15:07:29.779Z,3.45
2023-06-16T15:09:56.575Z,3.10
2023-06-16T15:12:23.304Z,3.20
2023-06-16T15:14:49.903Z,3.50
2023-06-16T15:17:16.628Z,3.50
2023-06-16T15:19:43.473Z,3.38
2023-06-16T15:22:10.237Z,3.33
2023-06-16T15:24:37.407Z,3.45
2023-06-16T15:27:04.587Z,3.50
2023-06-16T15:29:31.390Z,3.58
2023-06-16T15:31:58.154Z,3.20
2023-06-16T15:34:25.080Z,3.67
2023-06-16T15:36:52.175Z,3.20
2023-06-16T15:39:19.901Z,3.22
2023-06-16T15:41:46.963Z,3.00
2023-06-16T15:44:14.007Z,3.10
2023-06-16T15:46:41.093Z,3.50
2023-06-16T15:49:07.766Z,2.97
2023-06-16T15:51:34.672Z,3.75
2023-06-16T15:54:01.368Z,3.33
2023-06-16T15:56:28.241Z,3.58
2023-06-16T15:58:54.878Z,3.50
2023-06-16T16:01:21.696Z,3.25
2023-06-16T16:03:48.597Z,3.47
2023-06-16T16:06:15.641Z,3.50
2023-06-16T16:08:42.411Z,3.88
2023-06-16T16:11:09.934Z,4.00
2023-06-16T16:13:36.980Z,3.42
2023-06-16T16:16:03.961Z,3.83
2023-06-16T16:18:30.914Z,3.45
2023-06-16T16:20:57.806Z,3.10
2023-06-16T16:23:24.576Z,3.53
2023-06-16T16:25:51.251Z,3.70
2023-06-16T16:28:20.869Z,3.25
2023-06-16T16:30:47.695Z,3.45
2023-06-16T16:33:14.508Z,3.03
2023-06-16T16:35:41.644Z,3.17
2023-06-16T16:38:08.354Z,3.60
2023-06-16T16:40:35.050Z,3.60
2023-06-16T16:43:02.364Z,4.32
2023-06-16T16:45:29.403Z,3.88
2023-06-16T16:47:56.319Z,3.78
2023-06-16T16:50:23.342Z,3.70
2023-06-16T16:52:50.176Z,3.58
2023-06-16T16:55:34.437Z,3.40
2023-06-16T16:58:03.050Z,3.65
2023-06-16T17:00:29.757Z,3.63
2023-06-16T17:02:56.546Z,3.70
2023-06-16T17:05:23.502Z,3.47
2023-06-16T17:07:50.720Z,3.53
2023-06-16T17:10:18.097Z,3.50
2023-06-16T17:12:45.100Z,3.30
2023-06-16T17:15:11.814Z,3.45
2023-06-16T17:17:38.692Z,4.43
2023-06-16T17:20:06.564Z,3.13
2023-06-16T17:22:33.295Z,3.58
2023-06-16T17:24:59.946Z,3.83
2023-06-16T17:27:26.675Z,3.42
2023-06-16T17:29:53.363Z,4.00
2023-06-16T17:32:20.142Z,3.58
2023-06-16T17:34:46.873Z,3.50
2023-06-16T17:37:13.621Z,4.00
2023-06-16T17:39:40.302Z,3.88
2023-06-16T17:42:07.157Z,4.13
2023-06-16T17:44:33.836Z,3.53
2023-06-16T17:47:01.289Z,4.32
2023-06-16T17:49:28.577Z,3.70
2023-06-16T17:51:57.738Z,5.40
2023-06-16T17:54:24.395Z,4.65
2023-06-16T17:56:51.696Z,3.85
2023-06-16T17:59:18.502Z,3.85
2023-06-16T18:01:45.460Z,4.20
2023-06-16T18:04:12.363Z,3.90
2023-06-16T18:06:39.137Z,3.88
2023-06-16T18:09:06.009Z,4.05
2023-06-16T18:11:32.966Z,3.83
2023-06-16T18:14:00.279Z,4.30
2023-06-16T18:16:26.983Z,3.90
2023-06-16T18:18:53.719Z,4.28
2023-06-16T18:21:20.468Z,3.90
2023-06-16T18:23:47.209Z,4.20
2023-06-16T18:26:14.046Z,3.63
2023-06-16T18:28:40.736Z,3.65
2023-06-16T18:31:07.525Z,3.97
2023-06-16T18:33:34.313Z,4.25
2023-06-16T18:36:01.042Z,4.20
2023-06-16T18:38:27.743Z,3.75
2023-06-16T18:40:54.538Z,4.13
2023-06-16T18:43:25.446Z,4.95
2023-06-16T18:45:54.780Z,3.95
2023-06-16T18:48:22.072Z,4.70
2023-06-16T18:50:48.907Z,4.15
2023-06-16T18:53:15.631Z,3.92
2023-06-16T18:55:44.867Z,4.20
2023-06-16T18:58:11.739Z,4.03
2023-06-16T19:00:38.671Z,3.58
2023-06-16T19:03:06.104Z,4.13
2023-06-16T19:05:33.565Z,3.80
2023-06-16T19:08:00.838Z,4.15
2023-06-16T19:10:27.818Z,4.28
2023-06-16T19:12:54.596Z,4.07
2023-06-16T19:15:23.447Z,4.30
2023-06-16T19:17:51.294Z,4.03
2023-06-16T19:20:18.788Z,4.25
2023-06-16T19:22:46.024Z,4.05
2023-06-16T19:25:12.893Z,4.22
2023-06-16T19:27:39.871Z,3.83
2023-06-16T19:30:07.787Z,4.20
2023-06-16T19:32:35.798Z,3.47
2023-06-16T19:35:03.161Z,4.47
2023-06-16T19:37:34.211Z,4.45
2023-06-16T19:40:01.135Z,4.13
2023-06-16T19:42:27.969Z,4.35
2023-06-16T19:44:56.694Z,4.50
2023-06-16T19:47:25.179Z,4.60
2023-06-16T19:49:52.136Z,4.20
2023-06-16T19:52:19.032Z,4.13
2023-06-16T19:54:45.884Z,4.50
2023-06-16T19:57:13.336Z,4.75
2023-06-16T19:59:40.604Z,4.38
2023-06-16T20:02:07.782Z,4.68
2023-06-16T20:04:35.416Z,4.35
2023-06-16T20:07:02.508Z,4.72
2023-06-16T20:09:29.242Z,4.30
2023-06-16T20:11:56.382Z,4.60
2023-06-16T20:14:23.325Z,4.55
2023-06-16T20:16:50.136Z,4.95
2023-06-16T20:19:16.861Z,4.55
2023-06-16T20:21:43.510Z,5.15
2023-06-16T20:24:12.187Z,4.68
2023-06-16T20:26:39.903Z,4.18
2023-06-16T20:29:06.933Z,4.93
2023-06-16T20:31:34.517Z,4.63
2023-06-16T20:34:01.705Z,4.43
2023-06-16T20:36:28.614Z,4.43
2023-06-16T20:38:55.248Z,4.32
2023-06-16T20:41:29.350Z,4.50
2023-06-16T20:43:56.808Z,4.72
2023-06-16T20:46:24.454Z,4.95
2023-06-16T20:48:51.393Z,5.20
2023-06-16T20:51:18.419Z,4.40
2023-06-16T20:53:46.994Z,4.57
2023-06-16T20:56:14.121Z,4.03
2023-06-16T20:58:40.831Z,4.97
2023-06-16T21:01:09.313Z,4.75
2023-06-16T21:03:36.147Z,4.80
2023-06-16T21:06:02.936Z,5.68
2023-06-16T21:08:33.504Z,5.15
2023-06-16T21:11:01.200Z,4.70
2023-06-16T21:13:29.060Z,4.55
2023-06-16T21:16:01.835Z,4.47
2023-06-16T21:18:32.592Z,5.05
2023-06-16T21:20:59.888Z,5.03
2023-06-16T21:23:26.647Z,4.55
2023-06-16T21:25:53.385Z,4.50
2023-06-16T21:28:20.042Z,4.55
2023-06-16T21:30:46.862Z,4.72
2023-06-16T21:33:13.516Z,4.25
2023-06-16T21:35:40.197Z,4.07
2023-06-16T21:38:08.606Z,5.78
2023-06-16T21:40:37.422Z,4.75
2023-06-16T21:43:04.093Z,4.45
2023-06-16T21:45:30.874Z,4.10
2023-06-16T21:47:57.538Z,5.70
2023-06-16T21:50:24.679Z,4.88
2023-06-16T21:52:51.934Z,4.80
2023-06-16T21:55:18.881Z,4.72
2023-06-16T21:57:45.555Z,4.32
2023-06-16T22:00:12.988Z,4.25
2023-06-16T22:02:40.668Z,5.07
2023-06-16T22:05:09.024Z,5.35
2023-06-16T22:07:37.018Z,4.50
2023-06-16T22:10:04.716Z,4.80
2023-06-16T22:12:31.956Z,4.97
2023-06-16T22:14:59.671Z,4.60
2023-06-16T22:17:27.346Z,4.30
2023-06-16T22:19:54.323Z,5.28
2023-06-16T22:22:23.120Z,4.82
2023-06-16T22:24:49.840Z,4.70
2023-06-16T22:27:21.785Z,4.70
2023-06-16T22:29:50.025Z,4.28
2023-06-16T22:32:17.012Z,4.68
2023-06-16T22:34:44.352Z,5.28
2023-06-16T22:37:13.857Z,5.93
2023-06-16T22:39:42.308Z,5.63
2023-06-16T22:42:08.966Z,5.32
2023-06-16T22:44:35.821Z,4.40
2023-06-16T22:47:02.729Z,4.22
2023-06-16T22:49:30.220Z,4.35
2023-06-16T22:52:00.436Z,4.38
2023-06-16T22:54:28.861Z,4.53
2023-06-16T22:56:56.098Z,4.00
2023-06-16T22:59:23.495Z,4.10
2023-06-16T23:01:50.590Z,4.18
2023-06-16T23:04:17.586Z,4.22
2023-06-16T23:06:46.236Z,3.85
2023-06-16T23:09:12.999Z,4.28
2023-06-16T23:11:39.684Z,4.03
2023-06-16T23:14:06.564Z,4.03
2023-06-16T23:16:34.719Z,3.88
2023-06-16T23:19:02.059Z,3.83
2023-06-16T23:21:29.091Z,4.22
2023-06-16T23:23:57.305Z,4.10
2023-06-16T23:26:24.416Z,4.13
2023-06-16T23:28:51.445Z,4.32
2023-06-16T23:31:20.026Z,3.85
2023-06-16T23:33:47.966Z,4.00
2023-06-16T23:36:17.921Z,4.07
2023-06-16T23:38:49.512Z,4.43
2023-06-16T23:41:16.450Z,5.28
2023-06-16T23:43:43.103Z,4.75
2023-06-16T23:46:09.818Z,4.18
2023-06-16T23:48:36.427Z,4.25
2023-06-16T23:51:03.244Z,4.25
2023-06-16T23:53:31.375Z,4.43
2023-06-16T23:55:58.293Z,4.65
2023-06-16T23:58:26.095Z,4.63
